createdAt,value
2017-11-14T00:00:27.572Z,24.50
2017-11-14T00:01:27.590Z,32.50
2017-11-14T00:02:27.598Z,30.00
2017-11-14T00:03:27.607Z,27.40
2017-11-14T00:04:27.616Z,30.40
2017-11-14T00:05:27.624Z,21.90
2017-11-14T00:06:27.635Z,21.20
2017-11-14T00:07:27.655Z,34.20
2017-11-14T00:08:27.668Z,23.00
2017-11-14T00:09:27.672Z,23.00
2017-11-14T00:10:27.684Z,23.00
2017-11-14T00:11:27.694Z,35.50
2017-11-14T00:12:27.714Z,33.70
2017-11-14T00:13:27.731Z,26.70
2017-11-14T00:14:27.731Z,24.60
2017-11-14T00:15:27.740Z,27.40
2017-11-14T00:16:27.756Z,33.90
2017-11-14T00:17:27.763Z,30.50
2017-11-14T00:18:27.778Z,22.30
2017-11-14T00:19:27.793Z,33.70
2017-11-14T00:20:27.801Z,19.30
2017-11-14T00:21:27.808Z,31.80
2017-11-14T00:22:27.813Z,22.90
2017-11-14T00:23:27.836Z,24.60
2017-11-14T00:24:27.844Z,26.60
2017-11-14T00:25:27.856Z,26.90
2017-11-14T00:26:27.865Z,19.00
2017-11-14T00:27:27.875Z,15.90
2017-11-14T00:28:27.880Z,21.10
2017-11-14T00:29:27.905Z,34.10
2017-11-14T00:30:27.926Z,23.60
2017-11-14T00:31:27.922Z,25.80
2017-11-14T00:32:27.927Z,27.90
2017-11-14T00:33:27.936Z,34.70
2017-11-14T00:34:27.961Z,19.30
2017-11-14T00:35:27.970Z,25.30
2017-11-14T00:36:27.979Z,24.50
2017-11-14T00:37:27.986Z,25.50
2017-11-14T00:38:27.994Z,24.70
2017-11-14T00:39:28.252Z,23.60
2017-11-14T00:40:28.014Z,27.60
2017-11-14T00:41:28.034Z,25.20
2017-11-14T00:42:28.061Z,22.40
2017-11-14T00:43:28.056Z,23.40
2017-11-14T00:44:28.063Z,26.80
2017-11-14T00:45:28.071Z,23.20
2017-11-14T00:46:28.082Z,23.00
2017-11-14T00:47:28.101Z,29.50
2017-11-14T00:48:28.116Z,30.10
2017-11-14T00:49:28.115Z,29.20
2017-11-14T00:50:28.131Z,25.70
2017-11-14T00:51:28.146Z,21.40
2017-11-14T00:52:28.149Z,31.50
2017-11-14T00:53:28.168Z,29.40
2017-11-14T00:54:28.183Z,27.10
2017-11-14T00:55:28.182Z,28.30
2017-11-14T00:56:28.197Z,23.20
2017-11-14T00:57:28.208Z,21.90
2017-11-14T00:58:28.214Z,26.50
2017-11-14T00:59:28.217Z,25.50
2017-11-14T01:00:28.244Z,23.20
2017-11-14T01:01:28.247Z,23.60
2017-11-14T01:02:28.264Z,25.30
2017-11-14T01:03:28.269Z,24.90
2017-11-14T01:04:28.280Z,28.20
2017-11-14T01:05:28.285Z,28.40
2017-11-14T01:06:28.298Z,35.80
2017-11-14T01:07:28.316Z,24.00
2017-11-14T01:08:28.333Z,31.20
2017-11-14T01:09:28.331Z,27.50
2017-11-14T01:10:28.343Z,35.20
2017-11-14T01:11:28.353Z,24.00
2017-11-14T01:12:28.380Z,21.90
2017-11-14T01:13:28.382Z,29.90
2017-11-14T01:14:28.640Z,34.50
2017-11-14T01:15:28.400Z,36.90
2017-11-14T01:16:28.407Z,26.30
2017-11-14T01:17:28.418Z,37.60
2017-11-14T01:18:28.427Z,37.50
2017-11-14T01:19:28.437Z,35.80
2017-11-14T01:20:28.442Z,34.90
2017-11-14T01:21:28.467Z,39.00
2017-11-14T01:22:28.474Z,25.90
2017-11-14T01:23:28.479Z,30.80
2017-11-14T01:24:28.490Z,31.20
2017-11-14T01:25:28.502Z,29.50
2017-11-14T01:26:28.510Z,30.60
2017-11-14T01:27:28.518Z,36.30
2017-11-14T01:28:28.532Z,31.00
2017-11-14T01:29:28.546Z,27.60
2017-11-14T01:30:28.555Z,30.50
2017-11-14T01:31:28.565Z,38.40
2017-11-14T01:32:28.577Z,29.40
2017-11-14T01:33:28.585Z,25.40
2017-11-14T01:34:28.599Z,34.20
2017-11-14T01:35:28.604Z,27.10
2017-11-14T01:36:28.629Z,26.00
2017-11-14T01:37:28.633Z,30.30
2017-11-14T01:38:28.644Z,32.80
2017-11-14T01:39:28.653Z,22.60
2017-11-14T01:40:28.666Z,28.50
2017-11-14T01:41:28.666Z,30.20
2017-11-14T01:42:28.680Z,38.70
2017-11-14T01:43:28.684Z,40.10
2017-11-14T01:44:28.954Z,37.80
2017-11-14T01:45:28.723Z,35.90
2017-11-14T01:46:28.730Z,33.20
2017-11-14T01:47:28.731Z,37.30
2017-11-14T01:48:28.747Z,34.30
2017-11-14T01:49:28.751Z,38.70
2017-11-14T01:50:28.768Z,29.50
2017-11-14T01:51:28.768Z,34.40
2017-11-14T01:52:28.787Z,39.00
2017-11-14T01:53:28.806Z,44.10
2017-11-14T01:54:28.809Z,39.90
2017-11-14T01:55:28.823Z,33.20
2017-11-14T01:56:28.831Z,23.50
2017-11-14T01:57:28.845Z,26.20
2017-11-14T01:58:28.849Z,46.00
2017-11-14T01:59:28.850Z,35.40
2017-11-14T02:00:28.868Z,36.80
2017-11-14T02:01:28.885Z,39.20
2017-11-14T02:02:28.901Z,47.80
2017-11-14T02:03:28.898Z,44.10
2017-11-14T02:04:29.157Z,37.50
2017-11-14T02:05:28.916Z,35.60
2017-11-14T02:06:28.927Z,35.30
2017-11-14T02:07:28.936Z,41.40
2017-11-14T02:08:28.949Z,39.90
2017-11-14T02:09:28.953Z,35.30
2017-11-14T02:10:28.983Z,47.80
2017-11-14T02:11:28.993Z,55.30
2017-11-14T02:12:28.997Z,59.40
2017-11-14T02:13:29.007Z,50.30
2017-11-14T02:14:29.012Z,57.30
2017-11-14T02:15:29.023Z,48.90
2017-11-14T02:16:29.030Z,50.80
2017-11-14T02:17:29.037Z,44.00
2017-11-14T02:18:29.049Z,51.70
2017-11-14T02:19:29.065Z,39.70
2017-11-14T02:20:29.075Z,51.30
2017-11-14T02:21:29.082Z,49.90
2017-11-14T02:22:29.107Z,38.50
2017-11-14T02:23:29.101Z,38.20
2017-11-14T02:24:29.117Z,58.20
2017-11-14T02:25:29.120Z,41.80
2017-11-14T02:26:29.134Z,42.10
2017-11-14T02:27:29.152Z,42.20
2017-11-14T02:28:29.161Z,45.20
2017-11-14T02:29:29.472Z,54.60
2017-11-14T02:30:29.185Z,58.70
2017-11-14T02:31:29.189Z,40.10
2017-11-14T02:32:29.198Z,56.50
2017-11-14T02:33:29.205Z,54.30
2017-11-14T02:34:29.218Z,47.60
2017-11-14T02:35:29.224Z,54.50
2017-11-14T02:36:29.250Z,46.60
2017-11-14T02:37:29.262Z,47.80
2017-11-14T02:38:29.268Z,47.70
2017-11-14T02:39:29.273Z,55.20
2017-11-14T02:40:29.284Z,44.80
2017-11-14T02:41:29.289Z,48.60
2017-11-14T02:42:29.299Z,48.90
2017-11-14T02:43:29.308Z,39.40
2017-11-14T02:44:29.589Z,50.70
2017-11-14T02:45:29.337Z,58.20
2017-11-14T02:46:29.352Z,47.00
2017-11-14T02:47:29.374Z,70.60
2017-11-14T02:48:29.368Z,66.50
2017-11-14T02:49:29.381Z,67.50
2017-11-14T02:50:29.386Z,60.80
2017-11-14T02:51:29.395Z,56.70
2017-11-14T02:52:29.407Z,52.10
2017-11-14T02:53:29.416Z,61.40
2017-11-14T02:54:29.433Z,80.50
2017-11-14T02:55:29.436Z,88.70
2017-11-14T02:56:29.448Z,60.50
2017-11-14T02:57:29.454Z,68.70
2017-11-14T02:58:29.470Z,87.10
2017-11-14T02:59:29.472Z,51.40
2017-11-14T03:00:29.487Z,76.30
2017-11-14T03:01:29.490Z,59.50
2017-11-14T03:02:29.518Z,71.80
2017-11-14T03:03:29.527Z,71.50
2017-11-14T03:04:29.780Z,70.50
2017-11-14T03:05:29.536Z,87.00
2017-11-14T03:06:29.550Z,77.60
2017-11-14T03:07:29.557Z,66.70
2017-11-14T03:08:29.565Z,55.20
2017-11-14T03:09:29.575Z,46.20
2017-11-14T03:10:29.583Z,87.10
2017-11-14T03:11:29.608Z,56.60
2017-11-14T03:12:29.620Z,62.90
2017-11-14T03:13:29.625Z,73.60
2017-11-14T03:14:29.632Z,74.00
2017-11-14T03:15:29.662Z,68.50
2017-11-14T03:16:29.654Z,71.60
2017-11-14T03:17:29.657Z,73.80
2017-11-14T03:18:29.667Z,67.70
2017-11-14T03:19:29.928Z,78.80
2017-11-14T03:20:29.697Z,79.00
2017-11-14T03:21:29.707Z,82.60
2017-11-14T03:22:29.715Z,90.30
2017-11-14T03:23:29.741Z,82.30
2017-11-14T03:24:30.034Z,87.00
2017-11-14T03:25:29.743Z,65.60
2017-11-14T03:26:29.755Z,87.20
2017-11-14T03:27:29.757Z,95.20
2017-11-14T03:28:29.767Z,68.80
2017-11-14T03:29:29.790Z,64.10
2017-11-14T03:30:29.807Z,47.80
2017-11-14T03:31:29.810Z,74.80
2017-11-14T03:32:29.819Z,66.50
2017-11-14T03:33:29.826Z,53.60
2017-11-14T03:34:29.839Z,55.30
2017-11-14T03:35:29.841Z,79.90
2017-11-14T03:36:29.859Z,66.90
2017-11-14T03:37:29.861Z,68.20
2017-11-14T03:38:29.881Z,73.60
2017-11-14T03:39:30.190Z,75.40
2017-11-14T03:40:29.905Z,69.10
2017-11-14T03:41:29.907Z,69.20
2017-11-14T03:42:29.921Z,93.30
2017-11-14T03:43:29.930Z,76.40
2017-11-14T03:44:29.937Z,69.90
2017-11-14T03:45:29.947Z,59.80
2017-11-14T03:46:29.954Z,55.60
2017-11-14T03:47:29.975Z,59.80
2017-11-14T03:48:29.985Z,64.80
2017-11-14T03:49:29.995Z,52.50
2017-11-14T03:50:30.012Z,84.50
2017-11-14T03:51:30.013Z,81.10
2017-11-14T03:52:30.021Z,86.20
2017-11-14T03:53:30.029Z,111.90
2017-11-14T03:54:30.040Z,93.80
2017-11-14T03:55:30.049Z,101.20
2017-11-14T03:56:30.073Z,86.10
2017-11-14T03:57:30.078Z,74.50
2017-11-14T03:58:30.089Z,74.10
2017-11-14T03:59:30.343Z,67.00
2017-11-14T04:00:30.106Z,63.30
2017-11-14T04:01:30.112Z,65.90
2017-11-14T04:02:30.126Z,71.70
2017-11-14T04:03:30.129Z,75.30
2017-11-14T04:04:30.156Z,97.70
2017-11-14T04:05:30.160Z,73.40
2017-11-14T04:06:30.172Z,75.50
2017-11-14T04:07:30.182Z,76.40
2017-11-14T04:08:30.189Z,71.00
2017-11-14T04:09:30.209Z,58.40
2017-11-14T04:10:30.203Z,65.90
2017-11-14T04:11:30.218Z,62.80
2017-11-14T04:12:30.222Z,50.50
2017-11-14T04:13:30.245Z,48.80
2017-11-14T04:14:30.251Z,67.00
2017-11-14T04:15:30.264Z,66.20
2017-11-14T04:16:30.268Z,52.80
2017-11-14T04:17:30.278Z,44.90
2017-11-14T04:18:30.287Z,68.90
2017-11-14T04:19:30.299Z,61.70
2017-11-14T04:20:30.304Z,47.20
2017-11-14T04:21:30.317Z,69.10
2017-11-14T04:22:30.322Z,78.30
2017-11-14T04:23:30.342Z,70.90
2017-11-14T04:24:30.355Z,68.50
2017-11-14T04:25:30.360Z,80.40
2017-11-14T04:26:30.375Z,81.30
2017-11-14T04:27:30.381Z,60.80
2017-11-14T04:28:30.391Z,76.90
2017-11-14T04:29:30.700Z,76.30
2017-11-14T04:30:30.410Z,67.00
2017-11-14T04:31:30.417Z,85.10
2017-11-14T04:32:30.426Z,58.60
2017-11-14T04:33:30.435Z,63.40
2017-11-14T04:34:30.459Z,61.10
2017-11-14T04:35:30.465Z,99.00
2017-11-14T04:36:30.475Z,108.50
2017-11-14T04:37:30.490Z,122.40
2017-11-14T04:38:30.493Z,99.20
2017-11-14T04:39:30.501Z,98.60
2017-11-14T04:40:30.516Z,103.20
2017-11-14T04:41:30.515Z,97.40
2017-11-14T04:42:30.526Z,91.00
2017-11-14T04:43:30.539Z,84.40
2017-11-14T04:44:30.797Z,88.80
2017-11-14T04:45:30.566Z,77.30
2017-11-14T04:46:30.584Z,89.40
2017-11-14T04:47:30.584Z,71.10
2017-11-14T04:48:30.597Z,85.10
2017-11-14T04:49:30.611Z,64.80
2017-11-14T04:50:30.612Z,87.30
2017-11-14T04:51:30.617Z,66.30
2017-11-14T04:52:30.634Z,93.90
2017-11-14T04:53:30.635Z,77.50
2017-11-14T04:54:30.649Z,73.00
2017-11-14T04:55:30.656Z,65.60
2017-11-14T04:56:30.683Z,66.10
2017-11-14T04:57:30.683Z,80.60
2017-11-14T04:58:30.700Z,77.20
2017-11-14T04:59:30.951Z,79.60
2017-11-14T05:00:30.714Z,89.50
2017-11-14T05:01:30.718Z,67.70
2017-11-14T05:02:30.732Z,74.80
2017-11-14T05:03:30.739Z,82.50
2017-11-14T05:04:30.749Z,83.10
2017-11-14T05:05:30.754Z,72.70
2017-11-14T05:06:30.772Z,77.50
2017-11-14T05:07:30.775Z,79.80
2017-11-14T05:08:30.794Z,85.40
2017-11-14T05:09:30.805Z,94.40
2017-11-14T05:10:30.812Z,107.00
2017-11-14T05:11:30.819Z,100.90
2017-11-14T05:12:30.833Z,117.10
2017-11-14T05:13:30.841Z,138.20
2017-11-14T05:14:30.847Z,138.90
2017-11-14T05:15:30.858Z,124.20
2017-11-14T05:16:30.864Z,95.50
2017-11-14T05:17:30.881Z,116.10
2017-11-14T05:18:30.887Z,151.20
2017-11-14T05:19:30.904Z,112.20
2017-11-14T05:20:30.916Z,112.00
2017-11-14T05:21:30.925Z,105.00
2017-11-14T05:22:30.933Z,127.20
2017-11-14T05:23:30.942Z,135.60
2017-11-14T05:24:31.201Z,105.10
2017-11-14T05:25:30.958Z,106.30
2017-11-14T05:26:30.968Z,100.00
2017-11-14T05:27:30.978Z,108.40
2017-11-14T05:28:30.986Z,100.60
2017-11-14T05:29:31.006Z,95.80
2017-11-14T05:30:31.015Z,92.30
2017-11-14T05:31:31.025Z,102.00
2017-11-14T05:32:31.031Z,117.30
2017-11-14T05:33:31.045Z,110.30
2017-11-14T05:34:31.300Z,91.20
2017-11-14T05:35:31.061Z,105.10
2017-11-14T05:36:31.066Z,88.80
2017-11-14T05:37:31.078Z,88.70
2017-11-14T05:38:31.089Z,89.30
2017-11-14T05:39:31.359Z,80.10
2017-11-14T05:40:31.118Z,88.00
2017-11-14T05:41:31.123Z,96.10
2017-11-14T05:42:31.136Z,106.30
2017-11-14T05:43:31.142Z,109.60
2017-11-14T05:44:31.150Z,111.50
2017-11-14T05:45:31.163Z,131.80
2017-11-14T05:46:31.171Z,111.20
2017-11-14T05:47:31.177Z,111.50
2017-11-14T05:48:31.201Z,109.80
2017-11-14T05:49:31.211Z,115.60
2017-11-14T05:50:31.219Z,126.50
2017-11-14T05:51:31.227Z,149.30
2017-11-14T05:52:31.234Z,111.00
2017-11-14T05:53:31.245Z,113.70
2017-11-14T05:54:31.252Z,124.30
2017-11-14T05:55:31.261Z,137.00
2017-11-14T05:56:31.273Z,123.60
2017-11-14T05:57:31.295Z,109.60
2017-11-14T05:58:31.287Z,125.80
2017-11-14T05:59:31.597Z,118.20
2017-11-14T06:00:31.310Z,102.90
2017-11-14T06:01:31.327Z,120.40
2017-11-14T06:02:31.338Z,98.20
2017-11-14T06:03:31.344Z,94.20
2017-11-14T06:04:31.353Z,109.90
2017-11-14T06:05:31.368Z,113.30
2017-11-14T06:06:31.385Z,108.10
2017-11-14T06:07:31.380Z,92.70
2017-11-14T06:08:31.390Z,112.90
2017-11-14T06:09:31.401Z,121.20
2017-11-14T06:10:31.408Z,126.10
2017-11-14T06:11:31.417Z,140.60
2017-11-14T06:12:31.437Z,209.80
2017-11-14T06:13:31.446Z,342.80
2017-11-14T06:14:31.455Z,274.70
2017-11-14T06:15:31.480Z,298.40
2017-11-14T06:16:31.477Z,212.40
2017-11-14T06:17:31.481Z,342.20
2017-11-14T06:18:31.496Z,231.90
2017-11-14T06:19:31.501Z,332.20
2017-11-14T06:20:31.510Z,313.60
2017-11-14T06:21:31.534Z,395.70
2017-11-14T06:22:31.539Z,270.40
2017-11-14T06:23:31.550Z,321.60
2017-11-14T06:24:31.569Z,354.70
2017-11-14T06:25:31.568Z,411.70
2017-11-14T06:26:31.576Z,306.70
2017-11-14T06:27:31.587Z,278.80
2017-11-14T06:28:31.605Z,373.40
2017-11-14T06:29:31.604Z,409.80
2017-11-14T06:30:31.611Z,387.60
2017-11-14T06:31:31.629Z,389.30
2017-11-14T06:32:31.641Z,331.50
2017-11-14T06:33:31.661Z,329.00
2017-11-14T06:34:31.907Z,459.00
2017-11-14T06:35:31.666Z,318.70
2017-11-14T06:36:31.683Z,479.30
2017-11-14T06:37:31.686Z,484.70
2017-11-14T06:38:31.711Z,370.30
2017-11-14T06:39:31.968Z,437.60
2017-11-14T06:40:31.732Z,458.60
2017-11-14T06:41:31.735Z,373.10
2017-11-14T06:42:31.761Z,432.10
2017-11-14T06:43:31.753Z,265.80
2017-11-14T06:44:31.763Z,603.00
2017-11-14T06:45:31.780Z,441.30
2017-11-14T06:46:31.794Z,432.30
2017-11-14T06:47:31.798Z,413.90
2017-11-14T06:48:31.806Z,373.00
2017-11-14T06:49:31.818Z,398.90
2017-11-14T06:50:31.829Z,505.60
2017-11-14T06:51:31.836Z,527.50
2017-11-14T06:52:31.861Z,427.70
2017-11-14T06:53:31.868Z,444.90
2017-11-14T06:54:31.876Z,339.00
2017-11-14T06:55:31.881Z,404.60
2017-11-14T06:56:31.893Z,376.50
2017-11-14T06:57:31.900Z,281.00
2017-11-14T06:58:31.915Z,289.80
2017-11-14T06:59:32.183Z,339.20
2017-11-14T07:00:31.942Z,417.60
2017-11-14T07:01:31.948Z,436.80
2017-11-14T07:02:31.963Z,520.70
2017-11-14T07:03:31.968Z,543.10
2017-11-14T07:04:31.977Z,209.00
2017-11-14T07:05:32.000Z,500.30
2017-11-14T07:06:32.007Z,412.50
2017-11-14T07:07:32.018Z,352.50
2017-11-14T07:08:32.022Z,425.20
2017-11-14T07:09:32.032Z,534.10
2017-11-14T07:10:32.071Z,517.20
2017-11-14T07:11:32.062Z,363.00
2017-11-14T07:12:32.075Z,416.60
2017-11-14T07:13:32.082Z,490.70
2017-11-14T07:14:32.087Z,567.20
2017-11-14T07:15:32.100Z,555.20
2017-11-14T07:16:32.110Z,488.80
2017-11-14T07:17:32.128Z,675.10
2017-11-14T07:18:32.135Z,592.30
2017-11-14T07:19:32.145Z,638.40
2017-11-14T07:20:32.165Z,728.90
2017-11-14T07:21:32.167Z,531.50
2017-11-14T07:22:32.175Z,658.00
2017-11-14T07:23:32.196Z,679.20
2017-11-14T07:24:32.213Z,563.60
2017-11-14T07:25:32.215Z,577.80
2017-11-14T07:26:32.220Z,534.50
2017-11-14T07:27:32.229Z,590.20
2017-11-14T07:28:32.254Z,520.90
2017-11-14T07:29:32.260Z,468.30
2017-11-14T07:30:32.270Z,532.00
2017-11-14T07:31:32.281Z,493.30
2017-11-14T07:32:32.286Z,419.50
2017-11-14T07:33:32.310Z,500.50
2017-11-14T07:34:32.330Z,430.70
2017-11-14T07:35:32.325Z,449.60
2017-11-14T07:36:32.340Z,441.90
2017-11-14T07:37:32.343Z,364.30
2017-11-14T07:38:32.374Z,414.20
2017-11-14T07:39:32.627Z,324.30
2017-11-14T07:40:32.386Z,372.90
2017-11-14T07:41:32.395Z,632.40
2017-11-14T07:42:32.402Z,627.70
2017-11-14T07:43:32.422Z,359.80
2017-11-14T07:44:32.437Z,692.00
2017-11-14T07:45:32.440Z,536.00
2017-11-14T07:46:32.458Z,408.50
2017-11-14T07:47:32.472Z,544.80
2017-11-14T07:48:32.483Z,560.20
2017-11-14T07:49:32.487Z,376.30
2017-11-14T07:50:32.507Z,443.80
2017-11-14T07:51:32.504Z,377.30
2017-11-14T07:52:32.529Z,314.90
2017-11-14T07:53:32.556Z,368.80
2017-11-14T07:54:32.551Z,448.00
2017-11-14T07:55:32.563Z,466.00
2017-11-14T07:56:32.579Z,406.90
2017-11-14T07:57:32.583Z,346.70
2017-11-14T07:58:32.593Z,410.70
2017-11-14T07:59:32.604Z,294.20
2017-11-14T08:00:32.625Z,362.80
2017-11-14T08:01:32.632Z,357.20
2017-11-14T08:02:32.653Z,335.00
2017-11-14T08:03:32.652Z,308.20
2017-11-14T08:04:32.678Z,334.20
2017-11-14T08:05:32.679Z,335.20
2017-11-14T08:06:32.692Z,401.80
2017-11-14T08:07:32.697Z,590.80
2017-11-14T08:08:32.728Z,384.70
2017-11-14T08:09:32.726Z,346.70
2017-11-14T08:10:32.744Z,409.60
2017-11-14T08:11:32.757Z,312.50
2017-11-14T08:12:32.782Z,434.10
2017-11-14T08:13:32.779Z,260.30
2017-11-14T08:14:32.785Z,320.60
2017-11-14T08:15:32.808Z,328.60
2017-11-14T08:16:32.815Z,307.70
2017-11-14T08:17:32.825Z,344.60
2017-11-14T08:18:32.847Z,276.50
2017-11-14T08:19:32.858Z,259.60
2017-11-14T08:20:32.867Z,227.00
2017-11-14T08:21:32.875Z,312.50
2017-11-14T08:22:32.903Z,250.60
2017-11-14T08:23:32.901Z,229.00
2017-11-14T08:24:32.918Z,307.40
2017-11-14T08:25:32.935Z,347.60
2017-11-14T08:26:32.944Z,384.90
2017-11-14T08:27:32.950Z,237.80
2017-11-14T08:28:32.978Z,239.40
2017-11-14T08:29:32.983Z,226.10
2017-11-14T08:30:33.000Z,134.60
2017-11-14T08:31:33.014Z,155.30
2017-11-14T08:32:33.019Z,204.50
2017-11-14T08:33:33.029Z,212.70
2017-11-14T08:34:33.053Z,229.70
2017-11-14T08:35:33.058Z,191.90
2017-11-14T08:36:33.074Z,172.60
2017-11-14T08:37:33.089Z,240.50
2017-11-14T08:38:33.104Z,163.10
2017-11-14T08:39:33.110Z,201.60
2017-11-14T08:40:33.135Z,190.30
2017-11-14T08:41:33.136Z,220.40
2017-11-14T08:42:33.160Z,185.80
2017-11-14T08:43:33.170Z,189.70
2017-11-14T08:44:33.175Z,190.10
2017-11-14T08:45:33.185Z,198.80
2017-11-14T08:46:33.209Z,145.10
2017-11-14T08:47:33.218Z,178.10
2017-11-14T08:48:33.228Z,155.00
2017-11-14T08:49:33.249Z,157.00
2017-11-14T08:50:33.253Z,141.40
2017-11-14T08:51:33.280Z,152.10
2017-11-14T08:52:33.285Z,119.10
2017-11-14T08:53:33.294Z,122.30
2017-11-14T08:54:33.320Z,124.40
2017-11-14T08:55:33.327Z,123.20
2017-11-14T08:56:33.349Z,164.20
2017-11-14T08:57:33.353Z,150.10
2017-11-14T08:58:33.372Z,108.90
2017-11-14T08:59:33.387Z,107.00
2017-11-14T09:00:33.398Z,95.40
2017-11-14T09:01:33.406Z,111.50
2017-11-14T09:02:33.432Z,125.20
2017-11-14T09:03:33.433Z,111.50
2017-11-14T09:04:33.461Z,128.70
2017-11-14T09:05:33.470Z,115.10
2017-11-14T09:06:33.478Z,106.50
2017-11-14T09:07:33.495Z,95.30
2017-11-14T09:08:33.506Z,113.40
2017-11-14T09:09:33.513Z,84.00
2017-11-14T09:10:33.535Z,106.90
2017-11-14T09:11:33.540Z,109.10
2017-11-14T09:12:33.573Z,101.50
2017-11-14T09:13:33.574Z,98.00
2017-11-14T09:14:33.597Z,134.70
2017-11-14T09:15:33.604Z,96.90
2017-11-14T09:16:33.623Z,102.00
2017-11-14T09:17:33.631Z,119.90
2017-11-14T09:18:33.640Z,87.00
2017-11-14T09:19:33.677Z,83.40
2017-11-14T09:20:33.675Z,102.80
2017-11-14T09:21:33.692Z,67.90
2017-11-14T09:22:33.706Z,82.40
2017-11-14T09:23:33.714Z,79.40
2017-11-14T09:24:33.734Z,64.20
2017-11-14T09:25:33.740Z,52.50
2017-11-14T09:26:33.768Z,68.50
2017-11-14T09:27:33.773Z,71.80
2017-11-14T09:28:33.798Z,64.70
2017-11-14T09:29:33.806Z,61.60
2017-11-14T09:30:33.813Z,59.90
2017-11-14T09:31:33.831Z,67.00
2017-11-14T09:32:33.851Z,73.00
2017-11-14T09:33:33.865Z,67.30
2017-11-14T09:34:33.878Z,75.30
2017-11-14T09:35:33.895Z,66.50
2017-11-14T09:36:33.904Z,70.10
2017-11-14T09:37:33.925Z,60.70
2017-11-14T09:38:33.937Z,65.30
2017-11-14T09:39:33.946Z,75.30
2017-11-14T09:40:33.961Z,80.30
2017-11-14T09:41:33.970Z,78.80
2017-11-14T09:42:33.995Z,70.00
2017-11-14T09:43:34.000Z,69.40
2017-11-14T09:44:34.028Z,78.20
2017-11-14T09:45:34.030Z,75.00
2017-11-14T09:46:34.058Z,67.60
2017-11-14T09:47:34.065Z,74.50
2017-11-14T09:48:34.082Z,60.80
2017-11-14T09:49:34.107Z,69.50
2017-11-14T09:50:34.101Z,81.40
2017-11-14T09:51:34.129Z,76.50
2017-11-14T09:52:34.134Z,69.50
2017-11-14T09:53:34.150Z,74.30
2017-11-14T09:54:34.163Z,83.90
2017-11-14T09:55:34.187Z,75.80
2017-11-14T09:56:34.189Z,72.40
2017-11-14T09:57:34.212Z,70.00
2017-11-14T09:58:34.225Z,72.50
2017-11-14T09:59:34.250Z,67.80
2017-11-14T10:00:34.254Z,76.20
2017-11-14T10:01:34.275Z,67.80
2017-11-14T10:02:34.285Z,61.50
2017-11-14T10:03:34.307Z,72.80
2017-11-14T10:04:34.319Z,60.20
2017-11-14T10:05:34.332Z,52.90
2017-11-14T10:06:34.342Z,49.80
2017-11-14T10:07:34.367Z,48.30
2017-11-14T10:08:34.376Z,53.60
2017-11-14T10:09:34.397Z,59.10
2017-11-14T10:10:34.414Z,58.50
2017-11-14T10:11:34.424Z,60.40
2017-11-14T10:12:34.434Z,55.60
2017-11-14T10:13:34.466Z,52.70
2017-11-14T10:14:34.468Z,59.80
2017-11-14T10:15:34.489Z,60.40
2017-11-14T10:16:34.493Z,53.60
2017-11-14T10:17:34.514Z,50.90
2017-11-14T10:18:34.527Z,48.90
2017-11-14T10:19:34.546Z,54.10
2017-11-14T10:20:34.556Z,52.80
2017-11-14T10:21:34.577Z,48.70
2017-11-14T10:22:34.584Z,53.70
2017-11-14T10:23:34.609Z,54.70
2017-11-14T10:24:34.618Z,51.60
2017-11-14T10:25:34.635Z,48.10
2017-11-14T10:26:34.645Z,47.00
2017-11-14T10:27:34.666Z,50.60
2017-11-14T10:28:34.685Z,51.10
2017-11-14T10:29:34.696Z,50.50
2017-11-14T10:30:34.717Z,55.80
2017-11-14T10:31:34.730Z,54.30
2017-11-14T10:32:34.748Z,52.00
2017-11-14T10:33:34.760Z,48.50
2017-11-14T10:34:34.782Z,46.80
2017-11-14T10:35:34.793Z,46.80
2017-11-14T10:36:34.825Z,53.70
2017-11-14T10:37:34.819Z,49.00
2017-11-14T10:38:34.843Z,43.40
2017-11-14T10:39:34.848Z,44.40
2017-11-14T10:40:34.873Z,48.80
2017-11-14T10:41:34.896Z,47.30
2017-11-14T10:42:34.899Z,45.60
2017-11-14T10:43:34.925Z,53.20
2017-11-14T10:44:34.930Z,45.80
2017-11-14T10:45:34.954Z,46.00
2017-11-14T10:46:34.959Z,51.90
2017-11-14T10:47:34.981Z,46.60
2017-11-14T10:48:35.003Z,48.50
2017-11-14T10:49:35.011Z,39.50
2017-11-14T10:50:35.034Z,48.10
2017-11-14T10:51:35.046Z,42.30
2017-11-14T10:52:35.066Z,44.60
2017-11-14T10:53:35.076Z,46.00
2017-11-14T10:54:35.098Z,45.80
2017-11-14T10:55:35.104Z,42.30
2017-11-14T10:56:35.124Z,45.70
2017-11-14T10:57:35.150Z,42.90
2017-11-14T10:58:35.157Z,44.70
2017-11-14T10:59:35.180Z,44.80
2017-11-14T11:00:35.189Z,41.00
2017-11-14T11:01:35.209Z,42.40
2017-11-14T11:02:35.235Z,42.40
2017-11-14T11:03:35.238Z,44.50
2017-11-14T11:04:35.260Z,42.50
2017-11-14T11:05:35.271Z,47.40
2017-11-14T11:06:35.294Z,46.80
2017-11-14T11:07:35.310Z,51.60
2017-11-14T11:08:35.322Z,49.00
2017-11-14T11:09:35.339Z,51.40
2017-11-14T11:10:35.349Z,52.30
2017-11-14T11:11:35.373Z,45.20
2017-11-14T11:12:35.393Z,56.90
2017-11-14T11:13:35.403Z,52.50
2017-11-14T11:14:35.430Z,59.10
2017-11-14T11:15:35.435Z,63.30
2017-11-14T11:16:35.452Z,52.70
2017-11-14T11:17:35.473Z,52.00
2017-11-14T11:18:35.486Z,53.90
2017-11-14T11:19:35.509Z,50.50
2017-11-14T11:20:35.514Z,51.50
2017-11-14T11:21:35.537Z,47.90
2017-11-14T11:22:35.554Z,52.50
2017-11-14T11:23:35.567Z,47.10
2017-11-14T11:24:35.589Z,44.50
2017-11-14T11:25:35.609Z,45.50
2017-11-14T11:26:35.614Z,48.00
2017-11-14T11:27:35.637Z,43.50
2017-11-14T11:28:35.661Z,47.40
2017-11-14T11:29:35.667Z,47.40
2017-11-14T11:30:35.713Z,46.90
2017-11-14T11:31:35.699Z,45.10
2017-11-14T11:32:35.741Z,46.90
2017-11-14T11:33:35.740Z,47.70
2017-11-14T11:34:35.749Z,44.70
2017-11-14T11:35:35.777Z,45.30
2017-11-14T11:36:35.781Z,53.90
2017-11-14T11:37:35.801Z,43.20
2017-11-14T11:38:35.825Z,45.40
2017-11-14T11:39:35.833Z,44.00
2017-11-14T11:40:35.853Z,38.00
2017-11-14T11:41:35.875Z,44.70
2017-11-14T11:42:35.883Z,45.90
2017-11-14T11:43:35.906Z,43.50
2017-11-14T11:44:35.927Z,39.80
2017-11-14T11:45:35.947Z,40.60
2017-11-14T11:46:35.960Z,45.20
2017-11-14T11:47:35.965Z,40.60
2017-11-14T11:48:35.989Z,47.30
2017-11-14T11:49:36.011Z,39.30
2017-11-14T11:50:36.026Z,38.90
2017-11-14T11:51:36.040Z,48.00
2017-11-14T11:52:36.060Z,45.20
2017-11-14T11:53:36.071Z,38.20
2017-11-14T11:54:36.090Z,45.00
2017-11-14T11:55:36.114Z,49.60
2017-11-14T11:56:36.126Z,49.70
2017-11-14T11:57:36.145Z,45.80
2017-11-14T11:58:36.153Z,47.10
2017-11-14T11:59:36.174Z,47.90
2017-11-14T12:00:36.196Z,42.40
2017-11-14T12:01:36.203Z,40.20
2017-11-14T12:02:36.230Z,41.30
2017-11-14T12:03:36.234Z,40.50
2017-11-14T12:04:36.254Z,42.40
2017-11-14T12:05:36.275Z,38.60
2017-11-14T12:06:36.285Z,39.60
2017-11-14T12:07:36.310Z,39.60
2017-11-14T12:08:36.331Z,42.50
2017-11-14T12:09:36.338Z,36.90
2017-11-14T12:10:36.359Z,42.20
2017-11-14T12:11:36.367Z,43.10
2017-11-14T12:12:36.387Z,35.20
2017-11-14T12:13:36.410Z,40.10
2017-11-14T12:14:36.418Z,40.70
2017-11-14T12:15:36.439Z,44.20
2017-11-14T12:16:36.452Z,40.80
2017-11-14T12:17:36.470Z,42.60
2017-11-14T12:18:36.494Z,44.40
2017-11-14T12:19:36.514Z,41.30
2017-11-14T12:20:36.525Z,41.80
2017-11-14T12:21:36.546Z,40.90
2017-11-14T12:22:36.555Z,40.10
2017-11-14T12:23:36.576Z,38.20
2017-11-14T12:24:36.584Z,45.70
2017-11-14T12:25:36.602Z,42.30
2017-11-14T12:26:36.612Z,43.60
2017-11-14T12:27:36.637Z,40.30
2017-11-14T12:28:36.656Z,39.70
2017-11-14T12:29:36.666Z,39.40
2017-11-14T12:30:36.687Z,39.20
2017-11-14T12:31:36.714Z,39.20
2017-11-14T12:32:36.718Z,38.60
2017-11-14T12:33:36.740Z,37.20
2017-11-14T12:34:36.749Z,41.40
2017-11-14T12:35:36.767Z,40.20
2017-11-14T12:36:36.791Z,35.90
2017-11-14T12:37:36.814Z,38.80
2017-11-14T12:38:36.822Z,40.00
2017-11-14T12:39:36.829Z,42.20
2017-11-14T12:40:36.851Z,42.50
2017-11-14T12:41:36.874Z,45.90
2017-11-14T12:42:36.882Z,38.40
2017-11-14T12:43:36.900Z,39.40
2017-11-14T12:44:36.914Z,40.90
2017-11-14T12:45:36.931Z,41.80